Time;durP1;ratioP1;P1;durP2;ratioP2;P2;SDS_P1;SDS_P2;PMS_P1;PMS_P2;Temp;Humidity;BMP_temperature;BMP_pressure;BME280_temperature;BME280_humidity;BME280_pressure;Samples;Min_cycle;Max_cycle;Signal;HPM_P1;HPM_P2
2022/07/19 08:33:19;;;;;;;;;;;11.00;97.30;;;;;;5088264;28;20378;-63
2022/07/19 08:35:45;;;;;;;;;;;11.00;97.30;;;;;;5090975;28;20443;-65
2022/07/19 08:38:12;;;;;;;;;;;11.00;97.30;;;;;;5071721;28;19924;-64
2022/07/19 08:40:40;;;;;;;;;;;11.00;97.30;;;;;;5089810;28;19912;-65
2022/07/19 08:43:06;;;;;;;;;;;10.90;97.30;;;;;;5072887;28;20393;-65
2022/07/19 08:45:33;;;;;;;;;;;11.00;97.30;;;;;;5091235;28;19919;-64
2022/07/19 08:47:59;;;;;;;;;;;11.00;97.30;;;;;;5091307;28;19913;-64
2022/07/19 08:50:26;;;;;;;;;;;10.90;97.30;;;;;;5070323;28;19916;-63
2022/07/19 08:52:53;;;;;;;;;;;10.90;97.30;;;;;;5089205;28;19924;-65
2022/07/19 08:55:19;;;;;;;;;;;10.90;97.30;;;;;;5071985;28;19960;-65
2022/07/19 08:58:00;;;;;;;;;;;10.90;97.40;;;;;;5087478;28;19919;-64
2022/07/19 09:00:27;;;;;;;;;;;10.80;97.30;;;;;;5086987;28;20359;-64
2022/07/19 09:02:54;;;;;;;;;;;10.80;97.30;;;;;;5090530;28;20382;-65
2022/07/19 09:05:21;;;;;;;;;;;10.90;97.40;;;;;;5090126;28;19916;-64
2022/07/19 09:08:00;;;;;;;;;;;10.90;97.40;;;;;;5083810;28;19974;-64
2022/07/19 09:10:27;;;;;;;;;;;10.80;97.40;;;;;;5090956;28;20018;-65
2022/07/19 09:13:03;;;;;;;;;;;10.80;97.30;;;;;;5090407;28;19924;-66
2022/07/19 09:15:55;;;;;;;;;;;10.80;97.30;;;;;;5089501;28;19924;-65
2022/07/19 09:18:26;;;;;;;;;;;10.70;97.30;;;;;;5080522;28;19923;-64
2022/07/19 09:20:56;;;;;;;;;;;10.70;97.30;;;;;;5090836;28;19913;-65
2022/07/19 09:23:23;;;;;;;;;;;10.70;97.30;;;;;;5071314;28;20407;-64
2022/07/19 09:25:50;;;;;;;;;;;10.70;97.30;;;;;;5090221;28;20274;-64
2022/07/19 09:28:17;;;;;;;;;;;10.70;97.40;;;;;;5088787;28;19916;-64
2022/07/19 09:30:48;;;;;;;;;;;10.70;97.40;;;;;;5089911;28;20309;-65
2022/07/19 09:33:15;;;;;;;;;;;10.70;97.30;;;;;;5070447;28;19931;-65
2022/07/19 09:35:46;;;;;;;;;;;10.70;97.40;;;;;;5069932;28;20062;-65
2022/07/19 09:38:16;;;;;;;;;;;10.70;97.40;;;;;;5067842;28;19922;-66
2022/07/19 09:40:43;;;;;;;;;;;10.70;97.40;;;;;;5068384;28;20278;-66
2022/07/19 09:43:09;;;;;;;;;;;10.70;97.50;;;;;;5067106;28;19912;-66
2022/07/19 09:45:36;;;;;;;;;;;10.70;97.40;;;;;;5051853;28;19916;-65
2022/07/19 09:48:03;;;;;;;;;;;10.70;97.40;;;;;;5051896;28;19916;-65
2022/07/19 09:50:30;;;;;;;;;;;10.70;97.40;;;;;;5069783;28;20367;-65
2022/07/19 09:53:01;;;;;;;;;;;10.70;97.40;;;;;;5069130;28;20334;-67
2022/07/19 09:55:28;;;;;;;;;;;10.70;97.40;;;;;;5069499;28;19960;-67
2022/07/19 09:57:56;;;;;;;;;;;10.60;97.40;;;;;;5069635;28;20389;-68
2022/07/19 10:00:23;;;;;;;;;;;10.70;97.40;;;;;;5051804;28;20332;-67
2022/07/19 10:02:53;;;;;;;;;;;10.60;97.40;;;;;;5069040;28;19958;-66
2022/07/19 10:05:20;;;;;;;;;;;10.70;97.40;;;;;;5068873;28;19912;-67
2022/07/19 10:07:47;;;;;;;;;;;10.70;97.40;;;;;;5067955;28;20374;-66
2022/07/19 10:10:14;;;;;;;;;;;10.70;97.40;;;;;;5068797;28;19908;-66
2022/07/19 10:12:41;;;;;;;;;;;10.60;97.40;;;;;;5069478;28;19928;-66
2022/07/19 10:15:08;;;;;;;;;;;10.70;97.40;;;;;;5069476;28;19908;-66
2022/07/19 10:17:35;;;;;;;;;;;10.60;97.40;;;;;;5068529;28;20316;-66
2022/07/19 10:20:02;;;;;;;;;;;10.70;97.50;;;;;;5069658;28;19909;-66
2022/07/19 10:22:28;;;;;;;;;;;10.70;97.50;;;;;;5069544;28;19916;-65
2022/07/19 10:24:56;;;;;;;;;;;10.70;97.50;;;;;;5069858;28;20347;-66
2022/07/19 10:27:25;;;;;;;;;;;10.70;97.50;;;;;;5067463;28;19908;-67
2022/07/19 10:29:52;;;;;;;;;;;10.70;97.50;;;;;;5069573;28;19952;-67
2022/07/19 10:32:19;;;;;;;;;;;10.70;97.50;;;;;;5081226;28;20409;-67
2022/07/19 10:34:46;;;;;;;;;;;10.70;97.50;;;;;;5071530;28;19995;-65
2022/07/19 10:37:12;;;;;;;;;;;10.60;97.50;;;;;;5086556;28;19985;-66
2022/07/19 10:39:39;;;;;;;;;;;10.70;97.50;;;;;;5088675;28;20317;-66
2022/07/19 10:42:19;;;;;;;;;;;10.60;97.40;;;;;;5089330;28;19916;-67
2022/07/19 10:44:55;;;;;;;;;;;10.60;97.40;;;;;;5087955;28;20015;-66
2022/07/19 10:47:42;;;;;;;;;;;10.60;97.40;;;;;;5089833;28;19916;-67
2022/07/19 10:50:09;;;;;;;;;;;10.60;97.40;;;;;;5081954;28;19920;-67
2022/07/19 10:52:36;;;;;;;;;;;10.60;97.50;;;;;;5089173;28;19946;-69
2022/07/19 10:55:18;;;;;;;;;;;10.70;97.60;;;;;;5089013;28;19959;-68
2022/07/19 10:57:45;;;;;;;;;;;10.60;97.50;;;;;;5088938;28;20325;-68
2022/07/19 11:00:18;;;;;;;;;;;10.60;97.50;;;;;;5094405;28;19912;-67
2022/07/19 11:02:45;;;;;;;;;;;10.60;97.50;;;;;;5096879;28;19912;-66
2022/07/19 11:05:38;;;;;;;;;;;10.60;97.60;;;;;;5070390;28;19923;-65
2022/07/19 11:08:04;;;;;;;;;;;10.60;97.60;;;;;;5087374;28;19912;-66
2022/07/19 11:10:31;;;;;;;;;;;10.70;97.60;;;;;;5085681;28;20042;-66
2022/07/19 11:12:58;;;;;;;;;;;10.70;97.50;;;;;;5082517;28;19926;-66
2022/07/19 11:15:27;;;;;;;;;;;10.60;97.50;;;;;;5087886;28;20341;-66
2022/07/19 11:17:58;;;;;;;;;;;10.60;97.50;;;;;;5083883;28;19918;-66
2022/07/19 11:20:26;;;;;;;;;;;10.60;97.50;;;;;;5089085;28;19952;-66
2022/07/19 11:22:52;;;;;;;;;;;10.60;97.50;;;;;;5089397;28;19912;-66
2022/07/19 11:25:25;;;;;;;;;;;10.50;97.50;;;;;;5088804;28;19912;-66
2022/07/19 11:27:51;;;;;;;;;;;10.50;97.50;;;;;;5083216;28;20366;-69
2022/07/19 11:30:20;;;;;;;;;;;10.50;97.50;;;;;;5069959;28;19920;-68
2022/07/19 11:32:50;;;;;;;;;;;10.50;97.50;;;;;;5068306;28;20349;-68
2022/07/19 11:35:17;;;;;;;;;;;10.50;97.50;;;;;;5087899;28;20348;-68
2022/07/19 11:37:43;;;;;;;;;;;10.50;97.50;;;;;;5088332;28;19923;-68
2022/07/19 11:40:11;;;;;;;;;;;10.40;97.50;;;;;;5087792;28;19962;-67
2022/07/19 11:42:42;;;;;;;;;;;10.40;97.50;;;;;;5088277;28;19916;-68
2022/07/19 11:45:34;;;;;;;;;;;10.40;97.50;;;;;;5086232;28;20001;-67
2022/07/19 11:48:01;;;;;;;;;;;10.40;97.40;;;;;;5084019;28;20443;-66
2022/07/19 11:50:27;;;;;;;;;;;10.40;97.40;;;;;;5088287;28;19920;-68
2022/07/19 11:52:57;;;;;;;;;;;10.40;97.40;;;;;;5086679;28;20418;-67
2022/07/19 11:55:27;;;;;;;;;;;10.30;97.40;;;;;;5084334;28;19916;-67
2022/07/19 11:57:54;;;;;;;;;;;10.30;97.40;;;;;;5087968;28;19951;-67
2022/07/19 12:00:20;;;;;;;;;;;10.20;97.40;;;;;;5087615;28;20050;-66
2022/07/19 12:03:04;;;;;;;;;;;10.30;97.50;;;;;;5088533;28;20001;-66
2022/07/19 12:05:32;;;;;;;;;;;10.30;97.50;;;;;;5080359;28;19927;-65
2022/07/19 12:07:59;;;;;;;;;;;10.20;97.40;;;;;;5070348;28;19912;-65
2022/07/19 12:10:42;;;;;;;;;;;10.30;97.50;;;;;;5088364;28;19913;-64
2022/07/19 12:13:10;;;;;;;;;;;10.30;97.40;;;;;;5084511;28;19920;-67
2022/07/19 12:15:43;;;;;;;;;;;10.30;97.50;;;;;;5083746;28;19916;-64
2022/07/19 12:18:09;;;;;;;;;;;10.30;97.50;;;;;;5087986;28;19981;-65
2022/07/19 12:20:36;;;;;;;;;;;10.30;97.50;;;;;;5089563;28;19923;-65
2022/07/19 12:23:23;;;;;;;;;;;10.20;97.40;;;;;;5091708;28;19998;-67
2022/07/19 12:25:49;;;;;;;;;;;10.30;97.50;;;;;;5073009;28;19969;-65
2022/07/19 12:28:16;;;;;;;;;;;10.30;97.50;;;;;;5087720;28;20007;-66
2022/07/19 12:30:42;;;;;;;;;;;10.30;97.40;;;;;;5091787;28;19912;-65
2022/07/19 12:33:10;;;;;;;;;;;10.30;97.40;;;;;;5081521;28;19982;-66
2022/07/19 12:35:46;;;;;;;;;;;10.30;97.40;;;;;;5055199;28;20007;-65
2022/07/19 12:38:13;;;;;;;;;;;10.30;97.40;;;;;;5071721;28;19951;-66
2022/07/19 12:40:40;;;;;;;;;;;10.30;97.40;;;;;;5075558;28;19963;-67
2022/07/19 12:43:09;;;;;;;;;;;10.30;97.50;;;;;;5079311;28;19957;-67
2022/07/19 12:45:46;;;;;;;;;;;10.30;97.50;;;;;;5056615;28;19912;-66
2022/07/19 12:48:13;;;;;;;;;;;10.40;97.50;;;;;;5077732;28;19923;-66
2022/07/19 12:50:43;;;;;;;;;;;10.40;97.50;;;;;;5070962;28;20038;-66
2022/07/19 12:53:10;;;;;;;;;;;10.30;97.40;;;;;;5075595;28;20334;-65
2022/07/19 12:55:37;;;;;;;;;;;10.30;97.50;;;;;;5073029;28;19916;-65
2022/07/19 12:58:04;;;;;;;;;;;10.30;97.50;;;;;;5068792;28;20293;-67
2022/07/19 13:00:31;;;;;;;;;;;10.30;97.50;;;;;;5071650;28;19923;-67
2022/07/19 13:02:58;;;;;;;;;;;10.30;97.50;;;;;;5069761;28;19990;-67
2022/07/19 13:05:24;;;;;;;;;;;10.30;97.50;;;;;;5069322;28;20368;-67
2022/07/19 13:07:51;;;;;;;;;;;10.30;97.50;;;;;;5070281;28;19923;-67
2022/07/19 13:10:18;;;;;;;;;;;10.20;97.50;;;;;;5078749;28;20372;-67
2022/07/19 13:12:44;;;;;;;;;;;10.30;97.50;;;;;;5074270;28;19921;-66
2022/07/19 13:15:11;;;;;;;;;;;10.30;97.50;;;;;;5058944;28;19939;-67
2022/07/19 13:17:37;;;;;;;;;;;10.30;97.50;;;;;;5060675;28;19908;-68
2022/07/19 13:20:07;;;;;;;;;;;10.20;97.50;;;;;;5073282;28;19955;-68
2022/07/19 13:22:34;;;;;;;;;;;10.30;97.50;;;;;;5056355;28;19919;-68
2022/07/19 14:45:06;;;;;;;;;;;10.30;97.70;;;;;;5096777;28;20454;-68
2022/07/19 14:47:33;;;;;;;;;;;10.30;97.70;;;;;;5093319;28;19927;-68
2022/07/19 14:49:59;;;;;;;;;;;10.30;97.70;;;;;;5112900;28;19915;-67
2022/07/19 14:52:26;;;;;;;;;;;10.20;97.60;;;;;;5113021;28;19915;-67
2022/07/19 14:54:52;;;;;;;;;;;10.20;97.60;;;;;;5111044;28;20010;-67
2022/07/19 14:57:19;;;;;;;;;;;10.20;97.70;;;;;;5113070;28;19907;-66
2022/07/19 14:59:45;;;;;;;;;;;10.20;97.70;;;;;;5094422;28;20258;-67
2022/07/19 15:02:12;;;;;;;;;;;10.20;97.70;;;;;;5112723;28;19907;-67
2022/07/19 15:04:38;;;;;;;;;;;10.20;97.70;;;;;;5101903;28;19912;-68
2022/07/19 15:07:05;;;;;;;;;;;10.20;97.60;;;;;;5098367;28;19908;-68
2022/07/19 15:09:32;;;;;;;;;;;10.20;97.70;;;;;;5112253;28;20002;-68
2022/07/19 15:11:59;;;;;;;;;;;10.10;97.60;;;;;;5112034;28;19981;-68
2022/07/19 15:14:29;;;;;;;;;;;10.10;97.60;;;;;;5103288;28;19912;-68
2022/07/19 15:16:56;;;;;;;;;;;10.10;97.70;;;;;;5109808;28;19954;-67
2022/07/19 15:19:22;;;;;;;;;;;10.10;97.70;;;;;;5112507;28;19915;-68
2022/07/19 15:21:49;;;;;;;;;;;10.10;97.70;;;;;;5112387;28;20316;-67
2022/07/19 15:24:16;;;;;;;;;;;10.10;97.60;;;;;;5108487;28;19911;-68
2022/07/19 15:26:42;;;;;;;;;;;10.10;97.60;;;;;;5112554;28;19954;-68
2022/07/19 15:29:09;;;;;;;;;;;10.10;97.60;;;;;;5112551;28;19908;-67
2022/07/19 15:31:35;;;;;;;;;;;10.10;97.70;;;;;;5112414;28;19915;-67
2022/07/19 15:34:02;;;;;;;;;;;10.10;97.70;;;;;;5107545;28;19912;-67
2022/07/19 15:36:28;;;;;;;;;;;10.10;97.70;;;;;;5098043;28;19914;-67
2022/07/19 15:38:55;;;;;;;;;;;10.10;97.70;;;;;;5112048;28;19911;-67
2022/07/19 15:41:22;;;;;;;;;;;10.10;97.70;;;;;;5110532;28;20010;-67
2022/07/19 15:43:49;;;;;;;;;;;10.10;97.70;;;;;;5109694;28;20014;-67
2022/07/19 15:46:16;;;;;;;;;;;10.10;97.80;;;;;;5108321;28;19923;-67
2022/07/19 15:48:42;;;;;;;;;;;10.10;97.70;;;;;;5093832;28;20371;-67
2022/07/19 15:51:09;;;;;;;;;;;10.10;97.70;;;;;;5114394;28;20374;-66
2022/07/19 15:53:36;;;;;;;;;;;10.10;97.80;;;;;;5115757;28;19923;-66
2022/07/19 15:56:03;;;;;;;;;;;10.10;97.70;;;;;;5109446;28;19914;-67
2022/07/19 15:58:29;;;;;;;;;;;10.10;97.80;;;;;;5097627;28;20036;-67
2022/07/19 16:00:56;;;;;;;;;;;10.10;97.80;;;;;;5116311;28;19908;-67
2022/07/19 16:03:22;;;;;;;;;;;10.10;97.80;;;;;;5116057;28;19908;-67
2022/07/19 16:05:49;;;;;;;;;;;10.20;97.90;;;;;;5106848;28;20324;-68
2022/07/19 16:08:15;;;;;;;;;;;10.10;97.90;;;;;;5115923;28;19958;-67
2022/07/19 16:10:42;;;;;;;;;;;10.10;97.90;;;;;;5113116;28;19916;-67
2022/07/19 16:13:08;;;;;;;;;;;10.20;97.90;;;;;;5109607;28;20285;-67
2022/07/19 16:15:35;;;;;;;;;;;10.10;97.80;;;;;;5115684;28;19991;-67
2022/07/19 16:18:02;;;;;;;;;;;10.10;97.80;;;;;;5115835;28;20320;-67
2022/07/19 16:20:29;;;;;;;;;;;10.10;97.70;;;;;;5097256;28;19908;-66
2022/07/19 16:22:55;;;;;;;;;;;10.00;97.70;;;;;;5116084;28;19912;-66
2022/07/19 16:25:22;;;;;;;;;;;10.00;97.70;;;;;;5115902;28;19908;-67
2022/07/19 16:27:49;;;;;;;;;;;10.00;97.70;;;;;;5115783;28;20339;-67
2022/07/19 16:30:15;;;;;;;;;;;9.90;97.70;;;;;;5115754;28;19907;-67
2022/07/19 16:32:42;;;;;;;;;;;9.90;97.70;;;;;;5113630;28;19963;-67
2022/07/19 16:35:08;;;;;;;;;;;9.90;97.70;;;;;;5115605;27;19912;-67
2022/07/19 16:37:35;;;;;;;;;;;9.90;97.70;;;;;;5116102;27;19907;-67
2022/07/19 16:40:04;;;;;;;;;;;9.90;97.70;;;;;;5115300;28;19930;-67
2022/07/19 16:42:30;;;;;;;;;;;9.90;97.80;;;;;;5112209;28;19922;-67
2022/07/19 16:44:57;;;;;;;;;;;9.90;97.70;;;;;;5115181;28;19916;-67
2022/07/19 16:47:23;;;;;;;;;;;9.90;97.70;;;;;;5115596;28;19919;-68
2022/07/19 16:49:50;;;;;;;;;;;9.90;97.80;;;;;;5114793;28;19919;-67
2022/07/19 16:52:16;;;;;;;;;;;9.90;97.80;;;;;;5110284;28;20301;-67
2022/07/19 16:54:43;;;;;;;;;;;9.90;97.80;;;;;;5115073;28;19935;-67
2022/07/19 16:57:10;;;;;;;;;;;10.00;97.80;;;;;;5115239;28;20289;-67
2022/07/19 16:59:36;;;;;;;;;;;9.90;97.80;;;;;;5114909;28;20285;-67
2022/07/19 17:02:03;;;;;;;;;;;9.90;97.80;;;;;;5107634;28;19923;-67
2022/07/19 17:04:29;;;;;;;;;;;9.90;97.80;;;;;;5115331;28;19919;-67
2022/07/19 17:06:56;;;;;;;;;;;9.90;97.80;;;;;;5115103;28;19907;-67
2022/07/19 17:09:22;;;;;;;;;;;9.90;97.80;;;;;;5115265;28;19915;-68
2022/07/19 17:11:49;;;;;;;;;;;9.90;97.80;;;;;;5105430;28;20293;-68
2022/07/19 17:14:15;;;;;;;;;;;9.90;97.80;;;;;;5114996;28;20358;-68
2022/07/19 17:16:42;;;;;;;;;;;9.90;97.80;;;;;;5110249;28;19912;-68
2022/07/19 17:19:09;;;;;;;;;;;9.90;97.70;;;;;;5112213;28;19915;-67
2022/07/19 17:21:35;;;;;;;;;;;9.80;97.70;;;;;;5114581;28;19955;-68
2022/07/19 17:24:02;;;;;;;;;;;9.90;97.80;;;;;;5114270;28;19908;-68
2022/07/19 17:26:29;;;;;;;;;;;9.80;97.80;;;;;;5114516;28;19915;-68
2022/07/19 17:28:55;;;;;;;;;;;9.90;97.80;;;;;;5095046;28;19907;-67
2022/07/19 17:31:22;;;;;;;;;;;9.90;97.80;;;;;;5113367;27;20320;-68
2022/07/19 17:33:48;;;;;;;;;;;9.90;97.80;;;;;;5114166;28;19907;-68
2022/07/19 17:36:15;;;;;;;;;;;9.90;97.90;;;;;;5113837;28;20320;-68
2022/07/19 17:38:41;;;;;;;;;;;9.90;97.80;;;;;;5114862;28;20281;-68
2022/07/19 17:41:08;;;;;;;;;;;9.90;97.90;;;;;;5109092;28;20345;-67
2022/07/19 17:43:35;;;;;;;;;;;10.00;97.90;;;;;;5114140;28;19908;-68
2022/07/19 17:46:01;;;;;;;;;;;9.90;97.80;;;;;;5114050;28;19926;-68
2022/07/19 17:48:28;;;;;;;;;;;9.80;97.80;;;;;;5114253;28;19998;-67
2022/07/19 17:50:54;;;;;;;;;;;9.80;97.80;;;;;;5108802;28;19923;-68
2022/07/19 17:53:21;;;;;;;;;;;9.80;97.80;;;;;;5125907;27;19924;-68
2022/07/19 17:55:47;;;;;;;;;;;9.80;97.80;;;;;;5134160;27;19987;-68
2022/07/19 17:58:14;;;;;;;;;;;9.80;97.80;;;;;;5113058;27;20297;-68
2022/07/19 18:00:41;;;;;;;;;;;9.90;97.80;;;;;;5120758;27;19920;-67
2022/07/19 18:03:07;;;;;;;;;;;9.80;97.80;;;;;;5107917;27;19930;-68
2022/07/19 18:05:37;;;;;;;;;;;9.90;97.90;;;;;;5134329;27;20300;-68
2022/07/19 18:08:04;;;;;;;;;;;9.90;97.80;;;;;;5134643;27;19994;-68
2022/07/19 18:10:33;;;;;;;;;;;9.80;97.80;;;;;;5115934;27;20044;-67
2022/07/19 18:13:00;;;;;;;;;;;9.80;97.80;;;;;;5110542;27;19923;-67
2022/07/19 18:15:26;;;;;;;;;;;9.80;97.70;;;;;;5133605;27;20310;-67
2022/07/19 18:17:53;;;;;;;;;;;9.70;97.70;;;;;;5134526;27;19904;-67
2022/07/19 18:20:20;;;;;;;;;;;9.70;97.70;;;;;;5133274;27;19919;-66
2022/07/19 18:22:46;;;;;;;;;;;9.80;97.70;;;;;;5133010;27;19908;-67
2022/07/19 18:25:13;;;;;;;;;;;9.80;97.80;;;;;;5110044;27;19960;-67
2022/07/19 18:27:39;;;;;;;;;;;9.80;97.80;;;;;;5119118;27;19935;-68
2022/07/19 18:30:06;;;;;;;;;;;9.80;97.80;;;;;;5133810;27;20366;-68
2022/07/19 18:32:33;;;;;;;;;;;9.80;97.80;;;;;;5113145;27;20010;-67
2022/07/19 18:34:59;;;;;;;;;;;9.90;97.80;;;;;;5134271;27;19960;-68
2022/07/19 18:37:26;;;;;;;;;;;9.80;97.80;;;;;;5134079;27;19962;-67
2022/07/19 18:39:52;;;;;;;;;;;9.80;97.80;;;;;;5108719;28;20314;-67
2022/07/19 18:42:19;;;;;;;;;;;9.90;97.80;;;;;;5119787;27;19962;-68
2022/07/19 18:44:46;;;;;;;;;;;9.90;97.90;;;;;;5131200;27;19907;-68
2022/07/19 18:47:14;;;;;;;;;;;9.90;97.80;;;;;;5133980;27;20381;-68
2022/07/19 18:49:42;;;;;;;;;;;9.90;97.90;;;;;;5133401;27;20397;-67
2022/07/19 18:52:09;;;;;;;;;;;9.90;97.80;;;;;;5112623;27;20442;-67
2022/07/19 18:54:35;;;;;;;;;;;9.90;97.80;;;;;;5127860;27;19908;-67
2022/07/19 18:57:02;;;;;;;;;;;9.90;97.80;;;;;;5133989;27;19907;-67
2022/07/19 18:59:29;;;;;;;;;;;9.90;97.80;;;;;;5133648;27;20043;-68
2022/07/19 19:01:55;;;;;;;;;;;9.80;97.70;;;;;;5117383;27;19912;-68
2022/07/19 19:04:22;;;;;;;;;;;9.70;97.60;;;;;;5133390;27;19907;-67
2022/07/19 19:06:48;;;;;;;;;;;9.70;97.70;;;;;;5113077;27;19969;-68
2022/07/19 19:09:15;;;;;;;;;;;9.70;97.70;;;;;;5122872;27;19919;-67
2022/07/19 19:11:41;;;;;;;;;;;9.70;97.70;;;;;;5122188;27;19958;-68
2022/07/19 19:14:08;;;;;;;;;;;9.70;97.80;;;;;;5133526;27;19907;-67
2022/07/19 19:16:34;;;;;;;;;;;9.70;97.80;;;;;;5133705;27;20373;-67
2022/07/19 19:19:01;;;;;;;;;;;9.70;97.80;;;;;;5121676;27;19915;-67
2022/07/19 19:21:28;;;;;;;;;;;9.70;97.80;;;;;;5121202;27;20365;-68
2022/07/19 19:23:54;;;;;;;;;;;9.70;97.80;;;;;;5132435;28;19915;-67
2022/07/19 19:26:22;;;;;;;;;;;9.80;97.90;;;;;;5132598;27;19918;-68
2022/07/19 19:28:48;;;;;;;;;;;9.80;97.90;;;;;;5133081;28;19908;-67
2022/07/19 19:31:15;;;;;;;;;;;9.80;97.90;;;;;;5114514;28;19960;-66
2022/07/19 19:33:42;;;;;;;;;;;9.90;97.90;;;;;;5124247;28;19955;-67
2022/07/19 19:36:08;;;;;;;;;;;9.80;97.90;;;;;;5110814;28;19953;-67
2022/07/19 19:38:35;;;;;;;;;;;9.80;97.90;;;;;;5105435;28;19912;-67
2022/07/19 19:41:01;;;;;;;;;;;9.90;98.00;;;;;;5111767;28;19918;-67
2022/07/19 19:43:28;;;;;;;;;;;10.00;98.00;;;;;;5107625;28;19912;-67
2022/07/19 19:45:54;;;;;;;;;;;9.90;98.00;;;;;;5115467;28;20432;-67
2022/07/19 19:48:21;;;;;;;;;;;9.90;98.00;;;;;;5112066;28;19920;-67
2022/07/19 19:50:47;;;;;;;;;;;9.90;98.00;;;;;;5114137;28;19943;-67
2022/07/19 19:53:14;;;;;;;;;;;9.90;97.90;;;;;;5115104;28;19916;-67
2022/07/19 19:55:41;;;;;;;;;;;9.90;98.00;;;;;;5112170;28;19916;-67
2022/07/19 19:58:08;;;;;;;;;;;9.90;97.90;;;;;;5112655;28;20277;-67
2022/07/19 20:00:36;;;;;;;;;;;9.80;97.90;;;;;;5111250;28;19965;-67
2022/07/19 20:03:03;;;;;;;;;;;9.80;97.90;;;;;;5125731;28;19908;-67
2022/07/19 20:05:30;;;;;;;;;;;9.80;97.80;;;;;;5132686;28;19908;-66
2022/07/19 20:07:56;;;;;;;;;;;9.70;97.80;;;;;;5132407;28;19915;-66
2022/07/19 20:10:23;;;;;;;;;;;9.70;97.80;;;;;;5108134;28;20014;-67
2022/07/19 20:12:49;;;;;;;;;;;9.70;97.80;;;;;;5117856;28;20382;-67
2022/07/19 20:15:16;;;;;;;;;;;9.70;97.80;;;;;;5124155;28;19915;-66
2022/07/19 20:17:43;;;;;;;;;;;9.70;97.80;;;;;;5132490;28;20319;-67
2022/07/19 20:20:09;;;;;;;;;;;9.70;97.80;;;;;;5132371;28;19961;-67
2022/07/19 20:22:36;;;;;;;;;;;9.70;97.80;;;;;;5104132;28;20322;-67
2022/07/19 20:25:03;;;;;;;;;;;9.70;97.80;;;;;;5132233;28;19912;-67
2022/07/19 20:27:29;;;;;;;;;;;9.70;97.80;;;;;;5132495;28;19908;-67
2022/07/19 20:29:56;;;;;;;;;;;9.70;97.80;;;;;;5132741;28;19907;-67
2022/07/19 20:32:23;;;;;;;;;;;9.60;97.80;;;;;;5132559;28;19916;-67
2022/07/19 20:34:50;;;;;;;;;;;9.60;97.80;;;;;;5132230;28;19918;-67
2022/07/19 20:37:18;;;;;;;;;;;9.70;97.90;;;;;;5133142;27;19907;-67
2022/07/19 20:39:45;;;;;;;;;;;9.70;97.90;;;;;;5135877;27;19947;-67
2022/07/19 20:42:11;;;;;;;;;;;9.70;97.90;;;;;;5136187;27;20385;-67
2022/07/19 20:44:38;;;;;;;;;;;9.70;97.90;;;;;;5136032;27;19907;-67
2022/07/19 20:47:05;;;;;;;;;;;9.70;97.90;;;;;;5135809;27;19919;-67
2022/07/19 20:49:31;;;;;;;;;;;9.70;97.90;;;;;;5135412;27;20294;-68
2022/07/19 20:51:58;;;;;;;;;;;9.70;97.90;;;;;;5135747;27;20025;-67
2022/07/19 20:54:24;;;;;;;;;;;9.80;97.90;;;;;;5135368;27;19933;-67
2022/07/19 20:56:51;;;;;;;;;;;9.80;97.90;;;;;;5135751;27;19907;-67
2022/07/19 20:59:17;;;;;;;;;;;9.80;98.00;;;;;;5135723;27;19997;-67
2022/07/19 21:01:44;;;;;;;;;;;9.90;98.00;;;;;;5120880;27;19915;-66
2022/07/19 21:04:11;;;;;;;;;;;9.90;98.00;;;;;;5135862;27;19911;-66
2022/07/19 21:06:38;;;;;;;;;;;9.90;98.00;;;;;;5126393;27;20007;-66
2022/07/19 21:09:04;;;;;;;;;;;10.00;98.10;;;;;;5135464;27;19927;-66
2022/07/19 21:11:31;;;;;;;;;;;10.00;98.10;;;;;;5135443;27;20354;-66
2022/07/19 21:13:57;;;;;;;;;;;10.00;98.10;;;;;;5134944;27;19907;-66
2022/07/19 21:16:24;;;;;;;;;;;10.00;98.10;;;;;;5134829;27;19960;-66
2022/07/19 21:18:50;;;;;;;;;;;10.00;98.10;;;;;;5135324;27;19907;-66
2022/07/19 21:21:17;;;;;;;;;;;10.00;98.10;;;;;;5135300;27;19907;-66
2022/07/19 21:23:43;;;;;;;;;;;10.00;98.10;;;;;;5134999;27;19908;-66
2022/07/19 21:26:10;;;;;;;;;;;10.00;98.10;;;;;;5135142;27;19912;-66
2022/07/19 21:28:37;;;;;;;;;;;10.10;98.10;;;;;;5135098;27;19911;-66
2022/07/19 21:31:03;;;;;;;;;;;10.10;98.10;;;;;;5134699;27;20002;-66
2022/07/19 21:33:30;;;;;;;;;;;10.10;98.10;;;;;;5134852;27;19971;-66
2022/07/19 21:35:56;;;;;;;;;;;10.10;98.10;;;;;;5134666;27;19966;-65
2022/07/19 21:38:23;;;;;;;;;;;10.10;98.10;;;;;;5134812;27;19908;-66
2022/07/19 21:40:49;;;;;;;;;;;10.10;98.10;;;;;;5134394;27;19960;-66
2022/07/19 21:43:16;;;;;;;;;;;10.10;98.10;;;;;;5134499;27;19914;-66
2022/07/19 21:45:43;;;;;;;;;;;10.10;98.10;;;;;;5134189;27;19920;-64
2022/07/19 21:48:09;;;;;;;;;;;10.10;98.20;;;;;;5134240;27;19915;-65
2022/07/19 21:50:36;;;;;;;;;;;10.10;98.20;;;;;;5134406;27;19960;-66
2022/07/19 21:53:02;;;;;;;;;;;10.20;98.20;;;;;;5134350;27;19915;-66
2022/07/19 21:55:29;;;;;;;;;;;10.20;98.20;;;;;;5134437;27;20345;-66
2022/07/19 21:57:56;;;;;;;;;;;10.20;98.20;;;;;;5134342;27;19908;-66
2022/07/19 22:00:22;;;;;;;;;;;10.20;98.20;;;;;;5125148;27;19916;-66
2022/07/19 22:02:49;;;;;;;;;;;10.20;98.20;;;;;;5125257;27;20289;-66
2022/07/19 22:05:15;;;;;;;;;;;10.20;98.20;;;;;;5134261;27;20040;-66
2022/07/19 22:07:42;;;;;;;;;;;10.20;98.20;;;;;;5134304;27;19914;-66
2022/07/19 22:10:08;;;;;;;;;;;10.20;98.20;;;;;;5134192;27;19911;-66
2022/07/19 22:12:35;;;;;;;;;;;10.20;98.20;;;;;;5134043;27;20456;-66
2022/07/19 22:15:02;;;;;;;;;;;10.20;98.20;;;;;;5133832;27;20296;-66
2022/07/19 22:17:28;;;;;;;;;;;10.20;98.20;;;;;;5133902;27;19907;-66
2022/07/19 22:19:55;;;;;;;;;;;10.30;98.30;;;;;;5133882;27;19925;-66
2022/07/19 22:22:21;;;;;;;;;;;10.40;98.30;;;;;;5133678;27;19907;-66
2022/07/19 22:24:48;;;;;;;;;;;10.40;98.30;;;;;;5134316;27;19907;-67
2022/07/19 22:27:14;;;;;;;;;;;10.40;98.30;;;;;;5133852;27;19974;-67
2022/07/19 22:29:41;;;;;;;;;;;10.40;98.30;;;;;;5133656;27;19964;-67
2022/07/19 22:32:08;;;;;;;;;;;10.50;98.40;;;;;;5133672;27;19949;-67
2022/07/19 22:34:34;;;;;;;;;;;10.50;98.30;;;;;;5133609;27;20269;-66
2022/07/19 22:37:01;;;;;;;;;;;10.50;98.40;;;;;;5115185;27;19912;-67
2022/07/19 22:39:27;;;;;;;;;;;10.50;98.40;;;;;;5133464;27;19908;-67
2022/07/19 22:41:54;;;;;;;;;;;10.60;98.50;;;;;;5133605;27;20326;-66
2022/07/19 22:44:20;;;;;;;;;;;10.70;98.50;;;;;;5133585;27;19934;-67
2022/07/19 22:46:47;;;;;;;;;;;10.70;98.50;;;;;;5133347;27;20284;-66
2022/07/19 22:49:14;;;;;;;;;;;10.70;98.50;;;;;;5132970;27;19918;-66
2022/07/19 22:51:40;;;;;;;;;;;10.70;98.50;;;;;;5133047;27;19916;-67
2022/07/19 22:54:07;;;;;;;;;;;10.70;98.50;;;;;;5127572;27;19962;-66
2022/07/19 22:56:33;;;;;;;;;;;10.70;98.50;;;;;;5132366;27;19987;-67
2022/07/19 22:59:00;;;;;;;;;;;10.70;98.50;;;;;;5133277;27;19919;-67
2022/07/19 23:01:26;;;;;;;;;;;10.80;98.50;;;;;;5117987;27;20006;-67
2022/07/19 23:03:53;;;;;;;;;;;10.70;98.50;;;;;;5118743;27;19907;-66
2022/07/19 23:06:20;;;;;;;;;;;10.80;98.50;;;;;;5133135;27;20418;-67
2022/07/19 23:08:46;;;;;;;;;;;10.90;98.60;;;;;;5133181;27;19908;-66
2022/07/19 23:11:13;;;;;;;;;;;10.90;98.60;;;;;;5133306;27;19915;-67
2022/07/19 23:13:39;;;;;;;;;;;11.00;98.60;;;;;;5132966;27;19922;-66
2022/07/19 23:16:06;;;;;;;;;;;11.00;98.60;;;;;;5133026;27;20273;-66
2022/07/19 23:18:32;;;;;;;;;;;11.00;98.60;;;;;;5132927;27;19907;-67
2022/07/19 23:20:59;;;;;;;;;;;11.10;98.60;;;;;;5132861;27;19907;-65
2022/07/19 23:23:26;;;;;;;;;;;11.10;98.60;;;;;;5133200;27;19907;-66
2022/07/19 23:25:52;;;;;;;;;;;11.10;98.60;;;;;;5133265;28;19912;-66
2022/07/19 23:28:19;;;;;;;;;;;11.10;98.60;;;;;;5133147;28;19907;-66
2022/07/19 23:30:45;;;;;;;;;;;11.20;98.60;;;;;;5132615;28;19907;-66
2022/07/19 23:33:12;;;;;;;;;;;11.20;98.60;;;;;;5132824;28;19954;-66
2022/07/19 23:35:38;;;;;;;;;;;11.20;98.60;;;;;;5132535;28;19922;-66
2022/07/19 23:38:05;;;;;;;;;;;11.20;98.70;;;;;;5132937;28;19929;-66
2022/07/19 23:40:32;;;;;;;;;;;11.20;98.60;;;;;;5132886;28;19908;-66
2022/07/19 23:42:58;;;;;;;;;;;11.20;98.60;;;;;;5132814;28;19914;-67
2022/07/19 23:45:25;;;;;;;;;;;11.20;98.60;;;;;;5132585;28;19919;-66
2022/07/19 23:47:51;;;;;;;;;;;11.20;98.60;;;;;;5128872;28;22363;-66
2022/07/19 23:50:18;;;;;;;;;;;11.30;98.60;;;;;;5124229;28;19939;-66
2022/07/19 23:52:44;;;;;;;;;;;11.30;98.60;;;;;;5132746;28;19927;-66
2022/07/19 23:55:11;;;;;;;;;;;11.20;98.60;;;;;;5132903;28;20318;-66
2022/07/19 23:57:37;;;;;;;;;;;11.30;98.60;;;;;;5132590;28;19915;-66
